Time;durP1;ratioP1;P1;durP2;ratioP2;P2;SDS_P1;SDS_P2;PMS_P1;PMS_P2;Temp;Humidity;BMP_temperature;BMP_pressure;BME280_temperature;BME280_humidity;BME280_pressure;Samples;Min_cycle;Max_cycle;Signal;HPM_P1;HPM_P2
2023/11/04 00:00:22;;;;;;;;;;;;;;;;;;5034348;28;19928;-69
2023/11/04 00:02:48;;;;;;;;;;;;;;;;;;5063146;28;19928;-68
2023/11/04 00:05:14;;;;;;;;;;;;;;;;;;5062757;28;19921;-67
2023/11/04 00:07:40;;;;;;;;;;;;;;;;;;5040383;28;20034;-68
2023/11/04 00:10:06;;;;;;;;;;;;;;;;;;5060346;28;19971;-68
2023/11/04 00:12:32;;;;;;;;;;;;;;;;;;5063535;28;19964;-68
2023/11/04 00:14:58;;;;;;;;;;;;;;;;;;5044920;28;19920;-69
2023/11/04 00:17:24;;;;;;;;;;;;;;;;;;5031267;28;20063;-68
2023/11/04 00:19:50;;;;;;;;;;;;;;;;;;5044726;28;20440;-68
2023/11/04 00:22:16;;;;;;;;;;;;;;;;;;5049761;28;19925;-68
2023/11/04 00:24:42;;;;;;;;;;;;;;;;;;5049102;28;20366;-68
2023/11/04 00:27:07;;;;;;;;;;;;;;;;;;5055036;28;19932;-68
2023/11/04 00:29:33;;;;;;;;;;;;;;;;;;5055472;28;19999;-69
2023/11/04 00:31:59;;;;;;;;;;;;;;;;;;5054329;28;20066;-68
2023/11/04 00:34:26;;;;;;;;;;;;;;;;;;5060106;28;20573;-68
2023/11/04 00:36:52;;;;;;;;;;;;;;;;;;5049337;28;19929;-69
2023/11/04 00:39:17;;;;;;;;;;;;;;;;;;5058545;28;19924;-68
2023/11/04 00:41:43;;;;;;;;;;;;;;;;;;5055284;28;20254;-68
2023/11/04 00:44:09;;;;;;;;;;;;;;;;;;5042337;28;19924;-68
2023/11/04 00:46:35;;;;;;;;;;;;;;;;;;5063978;28;19932;-69
2023/11/04 00:49:03;;;;;;;;;;;;;;;;;;5057809;28;20039;-68
2023/11/04 00:51:29;;;;;;;;;;;;;;;;;;5066451;28;19957;-68
2023/11/04 00:53:55;;;;;;;;;;;;;;;;;;5051987;28;21156;-68
2023/11/04 00:56:21;;;;;;;;;;;;;;;;;;5052314;28;19966;-68
2023/11/04 00:58:46;;;;;;;;;;;;;;;;;;5044571;28;19921;-68
2023/11/04 01:01:14;;;;;;;;;;;;;;;;;;5029084;28;21640;-68
2023/11/04 01:03:40;;;;;;;;;;;;;;;;;;5039911;28;20551;-68
2023/11/04 01:06:06;;;;;;;;;;;;;;;;;;5033219;28;19951;-68
2023/11/04 01:08:32;;;;;;;;;;;;;;;;;;5047787;28;19979;-68
2023/11/04 01:10:57;;;;;;;;;;;;;;;;;;5039665;28;20374;-67
2023/11/04 01:13:25;;;;;;;;;;;;;;;;;;5048916;28;19960;-67
2023/11/04 01:15:52;;;;;;;;;;;;;;;;;;5051480;28;19978;-68
2023/11/04 01:18:19;;;;;;;;;;;;;;;;;;5067254;28;19925;-68
2023/11/04 01:20:45;;;;;;;;;;;;;;;;;;5024785;28;19925;-68
2023/11/04 01:23:10;;;;;;;;;;;;;;;;;;5053343;28;19925;-68
2023/11/04 01:25:36;;;;;;;;;;;;;;;;;;5034599;28;20322;-68
2023/11/04 01:28:02;;;;;;;;;;;;;;;;;;5039613;28;19932;-69
2023/11/04 01:30:28;;;;;;;;;;;;;;;;;;5037954;28;19925;-67
2023/11/04 01:32:54;;;;;;;;;;;;;;;;;;5045938;28;19925;-68
2023/11/04 01:35:20;;;;;;;;;;;;;;;;;;5043846;28;19926;-68
2023/11/04 01:37:46;;;;;;;;;;;;;;;;;;5055773;28;19946;-68
2023/11/04 01:40:12;;;;;;;;;;;;;;;;;;5047797;28;19927;-68
2023/11/04 01:42:38;;;;;;;;;;;;;;;;;;5054245;28;19924;-69
2023/11/04 01:45:04;;;;;;;;;;;;;;;;;;5038742;28;19972;-69
2023/11/04 01:47:30;;;;;;;;;;;;;;;;;;5048967;28;20353;-68
2023/11/04 01:49:56;;;;;;;;;;;;;;;;;;5058428;28;19928;-68
2023/11/04 01:52:22;;;;;;;;;;;;;;;;;;5015934;28;19929;-68
2023/11/04 01:54:48;;;;;;;;;;;;;;;;;;5054606;28;19925;-68
2023/11/04 01:57:13;;;;;;;;;;;;;;;;;;5030927;28;19931;-68
2023/11/04 01:59:39;;;;;;;;;;;;;;;;;;5046161;28;19921;-67
2023/11/04 02:02:06;;;;;;;;;;;;;;;;;;5043894;28;20340;-68
2023/11/04 02:04:32;;;;;;;;;;;;;;;;;;5052503;28;19921;-68
2023/11/04 02:06:58;;;;;;;;;;;;;;;;;;5031359;28;19936;-69
2023/11/04 02:09:24;;;;;;;;;;;;;;;;;;5026423;28;19956;-69
2023/11/04 02:11:50;;;;;;;;;;;;;;;;;;5048424;28;19970;-68
2023/11/04 02:14:15;;;;;;;;;;;;;;;;;;5054074;28;19921;-68
2023/11/04 02:16:42;;;;;;;;;;;;;;;;;;5014077;28;20274;-67
2023/11/04 02:19:08;;;;;;;;;;;;;;;;;;5033733;28;19925;-67
2023/11/04 02:21:33;;;;;;;;;;;;;;;;;;5025545;28;19936;-67
2023/11/04 02:23:59;;;;;;;;;;;;;;;;;;5052849;28;20259;-68
2023/11/04 02:26:25;;;;;;;;;;;;;;;;;;5033363;28;19964;-68
2023/11/04 02:28:51;;;;;;;;;;;;;;;;;;5033496;28;19960;-68
2023/11/04 02:31:17;;;;;;;;;;;;;;;;;;5031342;28;20004;-68
2023/11/04 02:33:43;;;;;;;;;;;;;;;;;;5051915;28;19927;-68
2023/11/04 02:36:09;;;;;;;;;;;;;;;;;;5033491;28;19920;-68
2023/11/04 02:38:35;;;;;;;;;;;;;;;;;;5065461;28;19933;-67
2023/11/04 02:41:01;;;;;;;;;;;;;;;;;;5051213;28;20464;-68
2023/11/04 02:43:27;;;;;;;;;;;;;;;;;;5059751;28;19936;-68
2023/11/04 02:45:52;;;;;;;;;;;;;;;;;;5027927;28;19921;-68
2023/11/04 02:48:18;;;;;;;;;;;;;;;;;;5025242;28;20293;-68
2023/11/04 02:50:44;;;;;;;;;;;;;;;;;;5046762;28;19925;-68
2023/11/04 02:53:11;;;;;;;;;;;;;;;;;;5028549;28;19921;-68
2023/11/04 02:55:37;;;;;;;;;;;;;;;;;;5053925;28;20425;-68
2023/11/04 02:58:03;;;;;;;;;;;;;;;;;;5049624;28;19928;-67
2023/11/04 03:00:29;;;;;;;;;;;;;;;;;;5034584;28;19921;-68
2023/11/04 03:02:55;;;;;;;;;;;;;;;;;;5022683;28;19932;-68
2023/11/04 03:05:21;;;;;;;;;;;;;;;;;;5049559;28;19925;-67
2023/11/04 03:07:47;;;;;;;;;;;;;;;;;;5016566;28;20389;-68
2023/11/04 03:10:13;;;;;;;;;;;;;;;;;;5019344;28;19928;-68
2023/11/04 03:12:39;;;;;;;;;;;;;;;;;;5031338;28;20745;-68
2023/11/04 03:15:05;;;;;;;;;;;;;;;;;;5046940;28;19928;-68
2023/11/04 03:17:31;;;;;;;;;;;;;;;;;;5055286;28;19925;-68
2023/11/04 03:19:57;;;;;;;;;;;;;;;;;;5052788;28;19921;-68
2023/11/04 03:22:23;;;;;;;;;;;;;;;;;;5046984;28;20015;-68
2023/11/04 03:24:49;;;;;;;;;;;;;;;;;;5029500;28;19943;-68
2023/11/04 03:27:15;;;;;;;;;;;;;;;;;;5031689;28;19928;-67
2023/11/04 03:29:41;;;;;;;;;;;;;;;;;;5048086;28;19921;-68
2023/11/04 03:32:08;;;;;;;;;;;;;;;;;;5043619;28;19925;-67
2023/11/04 03:34:34;;;;;;;;;;;;;;;;;;5051774;28;19924;-68
2023/11/04 03:37:03;;;;;;;;;;;;;;;;;;5049151;28;19940;-69
2023/11/04 03:39:29;;;;;;;;;;;;;;;;;;5032628;28;19925;-68
2023/11/04 03:41:55;;;;;;;;;;;;;;;;;;5054865;28;19925;-68
2023/11/04 03:44:21;;;;;;;;;;;;;;;;;;5053829;28;20035;-68
2023/11/04 03:46:47;;;;;;;;;;;;;;;;;;5054595;28;20365;-68
2023/11/04 03:49:12;;;;;;;;;;;;;;;;;;5035489;28;19925;-68
2023/11/04 03:51:38;;;;;;;;;;;;;;;;;;5027862;28;19974;-68
2023/11/04 03:54:05;;;;;;;;;;;;;;;;;;5052480;28;20344;-68
2023/11/04 03:56:31;;;;;;;;;;;;;;;;;;5036483;28;20019;-67
2023/11/04 03:58:57;;;;;;;;;;;;;;;;;;5052670;28;20024;-69
2023/11/04 04:01:23;;;;;;;;;;;;;;;;;;5042391;28;19921;-68
2023/11/04 04:03:49;;;;;;;;;;;;;;;;;;5057271;28;19936;-68
2023/11/04 04:06:15;;;;;;;;;;;;;;;;;;5036843;28;19970;-68
2023/11/04 04:08:41;;;;;;;;;;;;;;;;;;5057569;28;20426;-67
2023/11/04 04:11:07;;;;;;;;;;;;;;;;;;5068025;28;19920;-68
2023/11/04 04:13:33;;;;;;;;;;;;;;;;;;5038731;28;19932;-67
2023/11/04 04:16:00;;;;;;;;;;;;;;;;;;5052791;28;19953;-67
2023/11/04 04:18:26;;;;;;;;;;;;;;;;;;5055344;28;19924;-68
2023/11/04 04:20:51;;;;;;;;;;;;;;;;;;5020229;28;20443;-68
2023/11/04 04:23:17;;;;;;;;;;;;;;;;;;5020552;28;19925;-67
2023/11/04 04:25:43;;;;;;;;;;;;;;;;;;5016012;28;20630;-67
2023/11/04 04:28:09;;;;;;;;;;;;;;;;;;5027944;28;19929;-68
2023/11/04 04:30:35;;;;;;;;;;;;;;;;;;5033699;28;19925;-68
2023/11/04 04:33:01;;;;;;;;;;;;;;;;;;5030114;28;19956;-69
2023/11/04 04:35:28;;;;;;;;;;;;;;;;;;5036789;28;19974;-69
2023/11/04 04:37:54;;;;;;;;;;;;;;;;;;5022784;28;19966;-69
2023/11/04 04:40:20;;;;;;;;;;;;;;;;;;5035166;28;20332;-67
2023/11/04 04:42:46;;;;;;;;;;;;;;;;;;5058005;28;19975;-68
2023/11/04 04:45:12;;;;;;;;;;;;;;;;;;5047982;28;19924;-67
2023/11/04 04:47:39;;;;;;;;;;;;;;;;;;5033393;28;20358;-68
2023/11/04 04:50:04;;;;;;;;;;;;;;;;;;5060520;28;19925;-67
2023/11/04 04:52:30;;;;;;;;;;;;;;;;;;5064094;28;19931;-68
2023/11/04 04:54:56;;;;;;;;;;;;;;;;;;5050626;28;19920;-68
2023/11/04 04:57:22;;;;;;;;;;;;;;;;;;5052719;28;19927;-68
2023/11/04 04:59:48;;;;;;;;;;;;;;;;;;5041780;28;19932;-67
2023/11/04 05:02:15;;;;;;;;;;;;;;;;;;5047801;28;20444;-67
2023/11/04 05:04:40;;;;;;;;;;;;;;;;;;5030032;28;19940;-69
2023/11/04 05:07:06;;;;;;;;;;;;;;;;;;5055350;28;19924;-68
2023/11/04 05:09:32;;;;;;;;;;;;;;;;;;5036884;28;19994;-68
2023/11/04 05:11:58;;;;;;;;;;;;;;;;;;5056400;28;20382;-68
2023/11/04 05:14:24;;;;;;;;;;;;;;;;;;5054910;28;19978;-68
2023/11/04 05:16:50;;;;;;;;;;;;;;;;;;5028765;28;19936;-67
2023/11/04 05:19:16;;;;;;;;;;;;;;;;;;5035700;28;19952;-69
2023/11/04 05:21:42;;;;;;;;;;;;;;;;;;5038380;28;19920;-67
2023/11/04 05:24:08;;;;;;;;;;;;;;;;;;5050974;28;20427;-66
2023/11/04 05:26:34;;;;;;;;;;;;;;;;;;5033207;28;19936;-67
2023/11/04 05:29:00;;;;;;;;;;;;;;;;;;5031887;28;19926;-68
2023/11/04 05:31:25;;;;;;;;;;;;;;;;;;5055565;28;19932;-67
2023/11/04 05:33:51;;;;;;;;;;;;;;;;;;5031420;28;19928;-68
2023/11/04 05:36:18;;;;;;;;;;;;;;;;;;5033635;28;19932;-67
2023/11/04 05:38:44;;;;;;;;;;;;;;;;;;5032146;28;20302;-68
2023/11/04 05:41:10;;;;;;;;;;;;;;;;;;5054372;28;19981;-68
2023/11/04 05:43:36;;;;;;;;;;;;;;;;;;5034110;28;20661;-69
2023/11/04 05:46:03;;;;;;;;;;;;;;;;;;5046232;28;19952;-68
2023/11/04 05:48:30;;;;;;;;;;;;;;;;;;5012492;28;20340;-67
2023/11/04 05:50:55;;;;;;;;;;;;;;;;;;5035262;28;19929;-68
2023/11/04 05:53:21;;;;;;;;;;;;;;;;;;5037724;28;19970;-68
2023/11/04 05:55:47;;;;;;;;;;;;;;;;;;5053474;28;19921;-68
2023/11/04 05:58:13;;;;;;;;;;;;;;;;;;5033733;28;20489;-68
2023/11/04 06:00:39;;;;;;;;;;;;;;;;;;5027558;28;19927;-68
2023/11/04 06:03:06;;;;;;;;;;;;;;;;;;5048195;28;19940;-69
2023/11/04 06:05:33;;;;;;;;;;;;;;;;;;5030538;28;19925;-68
2023/11/04 06:07:59;;;;;;;;;;;;;;;;;;5054687;28;19921;-68
2023/11/04 06:10:25;;;;;;;;;;;;;;;;;;5034082;28;19978;-67
2023/11/04 06:12:52;;;;;;;;;;;;;;;;;;5035242;28;19921;-68
2023/11/04 06:15:19;;;;;;;;;;;;;;;;;;5055985;28;19971;-68
2023/11/04 06:17:45;;;;;;;;;;;;;;;;;;5053242;28;19920;-68
2023/11/04 06:20:10;;;;;;;;;;;;;;;;;;5031059;28;19927;-68
2023/11/04 06:22:37;;;;;;;;;;;;;;;;;;5029985;28;19979;-68
2023/11/04 06:25:03;;;;;;;;;;;;;;;;;;5057688;28;19927;-68
2023/11/04 06:27:29;;;;;;;;;;;;;;;;;;5038857;28;19979;-68
2023/11/04 06:29:55;;;;;;;;;;;;;;;;;;5028994;28;19933;-69
2023/11/04 06:32:21;;;;;;;;;;;;;;;;;;5030241;28;20339;-68
2023/11/04 06:34:47;;;;;;;;;;;;;;;;;;5028753;28;19921;-68
2023/11/04 06:37:14;;;;;;;;;;;;;;;;;;5063159;28;19943;-69
2023/11/04 06:39:40;;;;;;;;;;;;;;;;;;5073421;23;19978;-64
2023/11/04 06:42:06;;;;;;;;;;;;;;;;;;5069404;28;19929;-64
2023/11/04 06:44:33;;;;;;;;;;;;;;;;;;5046148;28;19921;-64
2023/11/04 06:46:59;;;;;;;;;;;;;;;;;;5072763;28;19920;-64
2023/11/04 06:49:25;;;;;;;;;;;;;;;;;;5063157;28;20042;-63
2023/11/04 06:51:51;;;;;;;;;;;;;;;;;;5079407;28;20396;-64
2023/11/04 06:54:16;;;;;;;;;;;;;;;;;;5062025;28;19925;-64
2023/11/04 06:56:42;;;;;;;;;;;;;;;;;;5056841;28;19964;-64
2023/11/04 06:59:08;;;;;;;;;;;;;;;;;;5068932;28;19921;-64
2023/11/04 07:01:34;;;;;;;;;;;;;;;;;;5054454;28;19964;-64
2023/11/04 07:04:00;;;;;;;;;;;;;;;;;;5060667;28;19967;-64
2023/11/04 07:06:26;;;;;;;;;;;;;;;;;;5070318;28;20335;-65
2023/11/04 07:08:54;;;;;;;;;;;;;;;;;;5078810;28;19920;-64
2023/11/04 07:11:20;;;;;;;;;;;;;;;;;;5073656;28;19920;-65
2023/11/04 07:13:46;;;;;;;;;;;;;;;;;;5067730;28;19958;-64
2023/11/04 07:16:12;;;;;;;;;;;;;;;;;;5077120;28;19924;-64
2023/11/04 07:18:38;;;;;;;;;;;;;;;;;;5062414;28;19999;-65
2023/11/04 07:21:04;;;;;;;;;;;;;;;;;;5067093;28;19990;-64
2023/11/04 07:23:30;;;;;;;;;;;;;;;;;;5040392;28;19974;-64
2023/11/04 07:25:55;;;;;;;;;;;;;;;;;;5065612;28;20002;-64
2023/11/04 07:28:25;;;;;;;;;;;;;;;;;;5044521;28;19921;-64
2023/11/04 07:30:51;;;;;;;;;;;;;;;;;;5043233;28;19924;-64
2023/11/04 07:33:17;;;;;;;;;;;;;;;;;;5063452;28;19977;-64
2023/11/04 07:35:43;;;;;;;;;;;;;;;;;;5059805;28;19920;-65
2023/11/04 07:38:09;;;;;;;;;;;;;;;;;;5071219;28;20259;-65
2023/11/04 07:40:35;;;;;;;;;;;;;;;;;;5068280;28;19944;-64
2023/11/04 07:43:01;;;;;;;;;;;;;;;;;;5067251;28;19925;-65
2023/11/04 07:45:27;;;;;;;;;;;;;;;;;;5067766;28;20062;-65
2023/11/04 07:47:53;;;;;;;;;;;;;;;;;;5061059;28;19921;-66
2023/11/04 07:50:19;;;;;;;;;;;;;;;;;;5061213;28;20035;-65
2023/11/04 07:52:45;;;;;;;;;;;;;;;;;;5061946;28;19921;-65
2023/11/04 07:55:11;;;;;;;;;;;;;;;;;;5061398;28;20382;-66
2023/11/04 07:57:37;;;;;;;;;;;;;;;;;;5065283;28;19927;-63
2023/11/04 08:00:05;;;;;;;;;;;;;;;;;;5064591;28;19925;-65
2023/11/04 08:02:31;;;;;;;;;;;;;;;;;;5063269;28;19960;-66
2023/11/04 08:04:59;;;;;;;;;;;;;;;;;;5070821;28;19927;-65
2023/11/04 08:07:25;;;;;;;;;;;;;;;;;;5067187;28;19924;-64
2023/11/04 08:09:51;;;;;;;;;;;;;;;;;;5066836;28;19924;-65
2023/11/04 08:12:17;;;;;;;;;;;;;;;;;;5066131;28;20262;-64
2023/11/04 08:14:42;;;;;;;;;;;;;;;;;;5064172;28;19931;-64
2023/11/04 08:17:08;;;;;;;;;;;;;;;;;;5064326;28;19927;-64
2023/11/04 08:19:35;;;;;;;;;;;;;;;;;;5061911;28;19920;-64
2023/11/04 08:22:00;;;;;;;;;;;;;;;;;;5058701;28;19967;-64
2023/11/04 08:24:26;;;;;;;;;;;;;;;;;;5059609;28;19924;-65
2023/11/04 08:26:52;;;;;;;;;;;;;;;;;;5055305;28;19932;-64
2023/11/04 08:29:18;;;;;;;;;;;;;;;;;;5048235;28;19928;-64
2023/11/04 08:31:44;;;;;;;;;;;;;;;;;;5062891;28;19978;-65
2023/11/04 08:34:10;;;;;;;;;;;;;;;;;;5058669;28;19920;-64
2023/11/04 08:36:36;;;;;;;;;;;;;;;;;;5065832;28;20003;-64
2023/11/04 08:39:02;;;;;;;;;;;;;;;;;;5067179;28;19927;-64
2023/11/04 08:41:28;;;;;;;;;;;;;;;;;;5078255;28;19929;-64
2023/11/04 08:43:54;;;;;;;;;;;;;;;;;;5030368;28;20691;-64
2023/11/04 08:46:20;;;;;;;;;;;;;;;;;;5060873;28;19920;-64
2023/11/04 08:48:46;;;;;;;;;;;;;;;;;;5074128;28;19954;-64
2023/11/04 08:51:11;;;;;;;;;;;;;;;;;;5074102;28;20347;-64
2023/11/04 08:53:37;;;;;;;;;;;;;;;;;;5071139;28;19970;-64
2023/11/04 08:56:03;;;;;;;;;;;;;;;;;;5044575;28;19925;-64
2023/11/04 08:58:29;;;;;;;;;;;;;;;;;;5069904;28;19921;-64
2023/11/04 09:00:55;;;;;;;;;;;;;;;;;;5064022;28;20274;-64
2023/11/04 09:03:23;;;;;;;;;;;;;;;;;;5054571;28;19920;-64
2023/11/04 09:05:48;;;;;;;;;;;;;;;;;;5068132;28;20382;-64
2023/11/04 09:08:14;;;;;;;;;;;;;;;;;;5093326;28;19924;-64
2023/11/04 09:10:40;;;;;;;;;;;;;;;;;;5055905;28;20553;-64
2023/11/04 09:13:06;;;;;;;;;;;;;;;;;;5064274;28;20258;-64
2023/11/04 09:15:32;;;;;;;;;;;;;;;;;;5063309;28;19931;-65
2023/11/04 09:17:58;;;;;;;;;;;;;;;;;;5052609;28;19927;-65
2023/11/04 09:20:24;;;;;;;;;;;;;;;;;;5073286;28;20333;-65
2023/11/04 09:22:50;;;;;;;;;;;;;;;;;;5081234;28;20011;-65
2023/11/04 09:25:16;;;;;;;;;;;;;;;;;;5056657;28;19956;-65
2023/11/04 09:27:43;;;;;;;;;;;;;;;;;;5023643;28;19920;-65
2023/11/04 09:30:09;;;;;;;;;;;;;;;;;;5069026;28;20345;-64
2023/11/04 09:32:34;;;;;;;;;;;;;;;;;;5071149;28;19970;-65
2023/11/04 09:35:01;;;;;;;;;;;;;;;;;;5071325;28;20003;-65
2023/11/04 09:37:27;;;;;;;;;;;;;;;;;;5042294;28;19921;-64
2023/11/04 09:39:53;;;;;;;;;;;;;;;;;;5063897;28;20689;-65
2023/11/04 09:42:19;;;;;;;;;;;;;;;;;;5071324;28;19925;-64
2023/11/04 09:44:45;;;;;;;;;;;;;;;;;;5061836;28;20451;-65
2023/11/04 09:47:11;;;;;;;;;;;;;;;;;;5056375;28;19929;-65
2023/11/04 09:49:37;;;;;;;;;;;;;;;;;;5060322;28;19925;-65
2023/11/04 09:52:03;;;;;;;;;;;;;;;;;;5061811;28;19982;-65
2023/11/04 09:54:29;;;;;;;;;;;;;;;;;;5071343;28;19920;-65
2023/11/04 09:57:02;;;;;;;;;;;;;;;;;;5129330;27;20356;-64
2023/11/04 09:59:29;;;;;;;;;;;;;;;;;;5154435;27;19924;-65
2023/11/04 10:01:55;;;;;;;;;;;;;;;;;;5122475;27;20407;-65
2023/11/04 10:04:21;;;;;;;;;;;;;;;;;;5120997;27;19927;-65
2023/11/04 10:06:47;;;;;;;;;;;;;;;;;;5130125;27;19965;-64
2023/11/04 10:09:13;;;;;;;;;;;;;;;;;;5135125;27;20330;-64
2023/11/04 10:11:38;;;;;;;;;;;;;;;;;;5119134;27;19957;-64
2023/11/04 10:14:08;;;;;;;;;;;;;;;;;;5116913;27;20125;-64
2023/11/04 10:16:34;;;;;;;;;;;;;;;;;;5116585;27;19974;-64
2023/11/04 10:19:00;;;;;;;;;;;;;;;;;;5134111;27;19958;-65
2023/11/04 10:21:26;;;;;;;;;;;;;;;;;;5114051;27;20251;-64
2023/11/04 10:23:52;;;;;;;;;;;;;;;;;;5135195;27;19926;-64
2023/11/04 10:26:18;;;;;;;;;;;;;;;;;;5121902;27;20294;-64
2023/11/04 10:28:44;;;;;;;;;;;;;;;;;;5120976;27;19928;-65
2023/11/04 10:31:11;;;;;;;;;;;;;;;;;;5124752;27;19927;-64
2023/11/04 10:33:37;;;;;;;;;;;;;;;;;;5120553;27;19924;-65
2023/11/04 10:36:03;;;;;;;;;;;;;;;;;;5113980;27;20006;-64
2023/11/04 10:38:29;;;;;;;;;;;;;;;;;;5111679;27;20010;-65
2023/11/04 10:40:55;;;;;;;;;;;;;;;;;;5129303;27;19931;-64
2023/11/04 10:43:21;;;;;;;;;;;;;;;;;;5138131;27;19926;-64
2023/11/04 10:45:47;;;;;;;;;;;;;;;;;;5130711;27;20273;-65
2023/11/04 10:48:13;;;;;;;;;;;;;;;;;;5129824;27;19966;-64
2023/11/04 10:50:39;;;;;;;;;;;;;;;;;;5120301;27;19931;-64
2023/11/04 10:53:05;;;;;;;;;;;;;;;;;;5124397;27;19926;-65
2023/11/04 10:55:31;;;;;;;;;;;;;;;;;;5117115;27;19924;-64
2023/11/04 10:57:57;;;;;;;;;;;;;;;;;;5149756;27;20371;-65
2023/11/04 11:00:23;;;;;;;;;;;;;;;;;;5141150;27;19924;-65
2023/11/04 11:02:52;;;;;;;;;;;;;;;;;;5112571;27;20013;-64
2023/11/04 11:05:22;;;;;;;;;;;;;;;;;;5115861;27;19935;-65
2023/11/04 11:07:48;;;;;;;;;;;;;;;;;;5120311;27;20360;-64
2023/11/04 11:10:13;;;;;;;;;;;;;;;;;;5114657;27;20124;-64
2023/11/04 11:12:39;;;;;;;;;;;;;;;;;;5117137;27;19920;-64
2023/11/04 11:15:05;;;;;;;;;;;;;;;;;;5119835;27;20397;-65
2023/11/04 11:17:34;;;;;;;;;;;;;;;;;;5116780;27;19920;-65
2023/11/04 11:20:01;;;;;;;;;;;;;;;;;;5119336;27;19923;-65
2023/11/04 11:22:27;;;;;;;;;;;;;;;;;;5092022;27;20455;-64
2023/11/04 11:24:56;;;;;;;;;;;;;;;;;;5102350;27;19923;-65
2023/11/04 11:27:21;;;;;;;;;;;;;;;;;;5107099;27;19950;-65
2023/11/04 11:29:47;;;;;;;;;;;;;;;;;;5109055;27;19919;-64
2023/11/04 11:32:13;;;;;;;;;;;;;;;;;;5105896;27;20401;-65
2023/11/04 11:34:39;;;;;;;;;;;;;;;;;;5120400;27;19927;-65
2023/11/04 11:37:05;;;;;;;;;;;;;;;;;;5121174;27;19972;-65
2023/11/04 11:39:31;;;;;;;;;;;;;;;;;;5096681;27;19925;-65
2023/11/04 11:41:57;;;;;;;;;;;;;;;;;;5102724;28;20377;-65
2023/11/04 11:44:23;;;;;;;;;;;;;;;;;;5122284;27;19962;-65
2023/11/04 11:46:49;;;;;;;;;;;;;;;;;;5117872;27;20450;-65
2023/11/04 11:49:15;;;;;;;;;;;;;;;;;;5126021;27;19972;-64
2023/11/04 11:51:41;;;;;;;;;;;;;;;;;;5127292;27;19930;-65
2023/11/04 11:54:10;;;;;;;;;;;;;;;;;;5110409;27;20010;-65
2023/11/04 11:56:36;;;;;;;;;;;;;;;;;;5113460;27;19924;-64
2023/11/04 11:59:03;;;;;;;;;;;;;;;;;;5124849;27;19919;-65
2023/11/04 12:01:28;;;;;;;;;;;;;;;;;;5120018;27;19919;-65
2023/11/04 12:03:54;;;;;;;;;;;;;;;;;;5114258;27;20261;-64
2023/11/04 12:06:22;;;;;;;;;;;;;;;;;;5110332;27;19927;-65
2023/11/04 12:08:48;;;;;;;;;;;;;;;;;;5113525;27;20452;-65
2023/11/04 12:11:14;;;;;;;;;;;;;;;;;;5096376;27;19934;-63
2023/11/04 12:13:40;;;;;;;;;;;;;;;;;;5095888;28;19926;-63
2023/11/04 12:16:08;;;;;;;;;;;;;;;;;;5115063;27;19928;-63
2023/11/04 12:18:34;;;;;;;;;;;;;;;;;;5102857;28;19930;-63
2023/11/04 12:21:00;;;;;;;;;;;;;;;;;;5111912;28;20007;-63
2023/11/04 12:23:29;;;;;;;;;;;;;;;;;;5107313;27;19924;-65
2023/11/04 12:25:58;;;;;;;;;;;;;;;;;;5106744;27;19919;-65
2023/11/04 12:28:24;;;;;;;;;;;;;;;;;;5108263;27;19924;-64
2023/11/04 12:30:50;;;;;;;;;;;;;;;;;;5104209;27;20474;-64
2023/11/04 12:33:16;;;;;;;;;;;;;;;;;;5106747;27;19924;-64
2023/11/04 12:35:42;;;;;;;;;;;;;;;;;;5109696;28;19931;-65
2023/11/04 12:38:08;;;;;;;;;;;;;;;;;;5103958;27;20357;-64
2023/11/04 12:40:34;;;;;;;;;;;;;;;;;;5106761;27;19935;-64
2023/11/04 12:43:01;;;;;;;;;;;;;;;;;;5105636;28;19924;-65
2023/11/04 12:45:27;;;;;;;;;;;;;;;;;;5105530;28;19970;-64
2023/11/04 12:47:53;;;;;;;;;;;;;;;;;;5102472;28;19954;-64
2023/11/04 12:50:19;;;;;;;;;;;;;;;;;;5101281;27;19920;-64
2023/11/04 12:52:45;;;;;;;;;;;;;;;;;;5100818;28;20020;-65
2023/11/04 12:55:11;;;;;;;;;;;;;;;;;;5102804;27;19992;-64
2023/11/04 12:57:37;;;;;;;;;;;;;;;;;;5106848;27;19920;-64
2023/11/04 13:00:05;;;;;;;;;;;;;;;;;;5105455;27;20002;-65
2023/11/04 13:02:31;;;;;;;;;;;;;;;;;;5120914;27;19927;-63
2023/11/04 13:04:58;;;;;;;;;;;;;;;;;;5092934;28;19920;-63
2023/11/04 13:07:24;;;;;;;;;;;;;;;;;;5115976;27;19927;-63
2023/11/04 13:09:50;;;;;;;;;;;;;;;;;;5108759;27;20362;-63
2023/11/04 13:12:16;;;;;;;;;;;;;;;;;;5097891;27;19926;-63
2023/11/04 13:14:42;;;;;;;;;;;;;;;;;;5127172;27;19998;-63
2023/11/04 13:17:08;;;;;;;;;;;;;;;;;;5104838;28;19927;-63
2023/11/04 13:19:34;;;;;;;;;;;;;;;;;;5107508;28;20409;-63
2023/11/04 13:22:00;;;;;;;;;;;;;;;;;;5092213;28;19978;-63
2023/11/04 13:24:25;;;;;;;;;;;;;;;;;;5108290;27;19924;-62
2023/11/04 13:26:51;;;;;;;;;;;;;;;;;;5093319;28;19935;-63
2023/11/04 13:29:17;;;;;;;;;;;;;;;;;;5122165;27;19954;-62
2023/11/04 13:31:43;;;;;;;;;;;;;;;;;;5108929;27;20018;-62
2023/11/04 13:34:09;;;;;;;;;;;;;;;;;;5129207;27;19923;-62
2023/11/04 13:36:37;;;;;;;;;;;;;;;;;;5124792;27;20353;-62
2023/11/04 13:39:06;;;;;;;;;;;;;;;;;;5099853;27;20049;-63
2023/11/04 13:41:32;;;;;;;;;;;;;;;;;;5093210;28;19930;-63
2023/11/04 13:43:57;;;;;;;;;;;;;;;;;;5106924;27;19924;-63
2023/11/04 13:46:24;;;;;;;;;;;;;;;;;;5116737;27;19985;-63
2023/11/04 13:48:51;;;;;;;;;;;;;;;;;;5124576;27;19923;-63
2023/11/04 13:51:17;;;;;;;;;;;;;;;;;;5132417;27;19945;-63
2023/11/04 13:53:43;;;;;;;;;;;;;;;;;;5131454;27;20356;-63
2023/11/04 13:56:09;;;;;;;;;;;;;;;;;;5128797;28;19923;-63
2023/11/04 13:58:35;;;;;;;;;;;;;;;;;;5123545;28;19926;-63
2023/11/04 14:01:01;;;;;;;;;;;;;;;;;;5117657;27;19974;-63
2023/11/04 14:03:31;;;;;;;;;;;;;;;;;;5113111;28;19920;-63
2023/11/04 14:05:57;;;;;;;;;;;;;;;;;;5117773;28;20601;-63
2023/11/04 14:08:22;;;;;;;;;;;;;;;;;;5127349;28;19919;-63
2023/11/04 14:10:48;;;;;;;;;;;;;;;;;;5106182;28;19920;-62
2023/11/04 14:13:16;;;;;;;;;;;;;;;;;;5121080;28;19939;-62
2023/11/04 14:15:42;;;;;;;;;;;;;;;;;;5112998;28;20014;-62
2023/11/04 14:18:08;;;;;;;;;;;;;;;;;;5117813;28;20018;-62
2023/11/04 14:20:34;;;;;;;;;;;;;;;;;;5131843;27;19934;-62
2023/11/04 14:23:00;;;;;;;;;;;;;;;;;;5109734;28;20003;-62
2023/11/04 14:25:27;;;;;;;;;;;;;;;;;;5109330;28;19981;-64
2023/11/04 14:27:53;;;;;;;;;;;;;;;;;;5130794;28;19931;-63
2023/11/04 14:30:19;;;;;;;;;;;;;;;;;;5133214;27;20464;-63
2023/11/04 14:32:44;;;;;;;;;;;;;;;;;;5100857;28;19924;-63
2023/11/04 14:35:11;;;;;;;;;;;;;;;;;;5108302;28;20441;-63
2023/11/04 14:37:37;;;;;;;;;;;;;;;;;;5126145;28;19919;-63
2023/11/04 14:40:06;;;;;;;;;;;;;;;;;;5112805;28;19968;-63
2023/11/04 14:42:32;;;;;;;;;;;;;;;;;;5107510;27;19924;-63
2023/11/04 14:44:58;;;;;;;;;;;;;;;;;;5107371;28;19923;-63
2023/11/04 14:47:24;;;;;;;;;;;;;;;;;;5116273;27;20185;-63
2023/11/04 14:49:50;;;;;;;;;;;;;;;;;;5122667;27;20422;-63
2023/11/04 14:52:15;;;;;;;;;;;;;;;;;;5114889;27;19924;-63
2023/11/04 14:54:41;;;;;;;;;;;;;;;;;;5118528;27;20345;-63
2023/11/04 14:57:08;;;;;;;;;;;;;;;;;;5109923;27;20376;-63
2023/11/04 14:59:34;;;;;;;;;;;;;;;;;;5121488;27;20328;-63
2023/11/04 15:02:00;;;;;;;;;;;;;;;;;;5111785;27;19923;-63
2023/11/04 15:04:26;;;;;;;;;;;;;;;;;;5117838;27;19964;-63
2023/11/04 15:06:52;;;;;;;;;;;;;;;;;;5121893;27;19926;-63
2023/11/04 15:09:18;;;;;;;;;;;;;;;;;;5112815;27;19920;-63
2023/11/04 15:11:44;;;;;;;;;;;;;;;;;;5117424;27;19923;-63
2023/11/04 15:14:10;;;;;;;;;;;;;;;;;;5117740;27;19972;-63
2023/11/04 15:16:37;;;;;;;;;;;;;;;;;;5118438;27;19931;-63
2023/11/04 15:19:04;;;;;;;;;;;;;;;;;;5114850;27;19920;-63
2023/11/04 15:21:30;;;;;;;;;;;;;;;;;;5112828;27;20364;-63
2023/11/04 15:23:56;;;;;;;;;;;;;;;;;;5113766;27;19920;-62
2023/11/04 15:26:22;;;;;;;;;;;;;;;;;;5116847;27;19920;-63
2023/11/04 15:28:48;;;;;;;;;;;;;;;;;;5113995;27;19973;-62
2023/11/04 15:31:14;;;;;;;;;;;;;;;;;;5118117;27;19927;-62
2023/11/04 15:33:40;;;;;;;;;;;;;;;;;;5113704;27;19927;-63
2023/11/04 15:36:06;;;;;;;;;;;;;;;;;;5113812;27;19931;-62
2023/11/04 15:38:32;;;;;;;;;;;;;;;;;;5115591;27;20344;-65
2023/11/04 15:40:58;;;;;;;;;;;;;;;;;;5119136;27;19924;-63
2023/11/04 15:43:24;;;;;;;;;;;;;;;;;;5110474;27;19926;-63
2023/11/04 15:45:50;;;;;;;;;;;;;;;;;;5110504;27;19935;-62
2023/11/04 15:48:16;;;;;;;;;;;;;;;;;;5107500;27;20603;-63
2023/11/04 15:50:42;;;;;;;;;;;;;;;;;;5120073;27;19941;-63
2023/11/04 15:53:08;;;;;;;;;;;;;;;;;;5110424;27;19919;-63
2023/11/04 15:55:33;;;;;;;;;;;;;;;;;;5112244;27;20399;-63
2023/11/04 15:57:59;;;;;;;;;;;;;;;;;;5116769;27;19923;-63
2023/11/04 16:00:25;;;;;;;;;;;;;;;;;;5116142;27;20002;-62
2023/11/04 16:02:51;;;;;;;;;;;;;;;;;;5122696;27;19973;-62
2023/11/04 16:05:17;;;;;;;;;;;;;;;;;;5120706;27;20592;-62
2023/11/04 16:07:43;;;;;;;;;;;;;;;;;;5117395;27;19933;-63
2023/11/04 16:10:10;;;;;;;;;;;;;;;;;;5112424;27;19965;-62
2023/11/04 16:12:36;;;;;;;;;;;;;;;;;;5113201;27;19919;-63
2023/11/04 16:15:02;;;;;;;;;;;;;;;;;;5120767;27;19923;-62
2023/11/04 16:17:27;;;;;;;;;;;;;;;;;;5096267;27;20276;-64
2023/11/04 16:19:53;;;;;;;;;;;;;;;;;;5102546;28;19921;-63
2023/11/04 16:22:19;;;;;;;;;;;;;;;;;;5112293;27;19999;-64
2023/11/04 16:24:45;;;;;;;;;;;;;;;;;;5103193;27;19923;-64
2023/11/04 16:27:11;;;;;;;;;;;;;;;;;;5109379;27;19923;-64
2023/11/04 16:29:37;;;;;;;;;;;;;;;;;;5096893;27;19928;-63
2023/11/04 16:32:03;;;;;;;;;;;;;;;;;;5104929;27;19965;-64
2023/11/04 16:34:29;;;;;;;;;;;;;;;;;;5104311;27;20357;-63
2023/11/04 16:36:55;;;;;;;;;;;;;;;;;;5105610;28;19931;-64